Time;durP1;ratioP1;P1;durP2;ratioP2;P2;SDS_P1;SDS_P2;PMS_P1;PMS_P2;Temp;Humidity;BMP_temperature;BMP_pressure;BME280_temperature;BME280_humidity;BME280_pressure;Samples;Min_cycle;Max_cycle;Signal;HPM_P1;HPM_P2
2021/08/19 15:51:53;;;;;;;11.70;9.00;;;20.20;98.30;;;;;;5089805;23;20464;31
2021/08/19 16:41:14;;;;;;;12.53;6.50;;;19.90;98.30;;;;;;4701146;25;20401;-82
2021/08/19 16:43:17;;;;;;;8.77;5.60;;;19.80;98.30;;;;;;4757834;25;20493;-82
2021/08/19 16:45:20;;;;;;;9.50;5.47;;;19.80;98.30;;;;;;4911994;23;20435;-81
2021/08/19 16:47:23;;;;;;;8.90;5.50;;;19.80;98.30;;;;;;4985574;23;20467;-82
2021/08/19 16:49:29;;;;;;;7.60;5.33;;;19.60;98.30;;;;;;5060793;23;20449;-81
2021/08/19 16:51:33;;;;;;;8.87;6.13;;;19.60;98.30;;;;;;5057579;23;20432;-82
2021/08/19 16:53:39;;;;;;;10.93;6.03;;;19.50;98.30;;;;;;5077641;23;20463;-82
2021/08/19 16:58:16;;;;;;;11.03;7.60;;;19.40;98.30;;;;;;5079884;23;20905;-82
2021/08/19 17:00:28;;;;;;;11.40;8.20;;;19.30;98.30;;;;;;5069978;23;20455;-82
2021/08/19 17:02:39;;;;;;;13.97;8.27;;;19.40;98.30;;;;;;5079227;23;21100;-82
2021/08/19 17:04:47;;;;;;;11.63;6.67;;;19.30;98.30;;;;;;5077819;23;20423;-83
2021/08/19 17:06:54;;;;;;;8.87;6.27;;;19.30;98.30;;;;;;5078142;23;20479;-82
2021/08/19 17:08:59;;;;;;;10.07;6.03;;;19.30;98.30;;;;;;5079174;23;20451;-82
2021/08/19 17:11:11;;;;;;;9.33;5.53;;;19.20;98.30;;;;;;5071015;23;21096;-83
2021/08/19 17:22:59;;;;;;;8.23;5.40;;;18.90;98.30;;;;;;5068172;23;20455;-83
2021/08/19 17:25:10;;;;;;;8.00;5.57;;;18.90;98.30;;;;;;5079065;23;20404;-83
2021/08/19 17:28:04;;;;;;;8.83;6.20;;;18.80;98.30;;;;;;5070765;23;20431;-83
2021/08/19 17:36:27;;;;;;;9.00;6.00;;;18.70;98.30;;;;;;5059354;23;20422;-83
2021/08/19 17:38:58;;;;;;;8.20;5.60;;;18.70;98.30;;;;;;5016355;23;20432;-83
2021/08/19 17:44:52;;;;;;;8.67;5.80;;;18.60;98.30;;;;;;4969248;23;20444;-83
2021/08/19 17:46:59;;;;;;;7.27;5.00;;;18.60;98.30;;;;;;5028423;23;20429;-83
2021/08/19 17:51:46;;;;;;;7.40;5.10;;;18.50;98.30;;;;;;5035000;23;20710;-83
2021/08/19 17:53:50;;;;;;;6.60;4.90;;;18.40;98.30;;;;;;5057846;23;20439;-83
2021/08/19 17:55:58;;;;;;;7.20;5.73;;;18.30;98.30;;;;;;5078854;23;20907;-83
2021/08/19 17:58:05;;;;;;;7.20;4.97;;;18.30;98.30;;;;;;5081597;23;21176;-83
2021/08/19 18:00:50;;;;;;;6.50;4.40;;;18.30;98.30;;;;;;5073877;23;20996;-83
2021/08/19 18:03:24;;;;;;;6.63;5.73;;;18.30;98.30;;;;;;5079452;23;20828;-83
2021/08/19 18:05:30;;;;;;;4.80;4.23;;;18.30;98.30;;;;;;5079486;23;20427;-83
2021/08/19 18:07:34;;;;;;;6.60;4.17;;;18.30;98.30;;;;;;5072064;23;20499;-83
2021/08/19 18:09:40;;;;;;;9.20;4.37;;;18.20;98.30;;;;;;5080602;23;20483;-82
2021/08/19 18:11:46;;;;;;;6.23;3.90;;;18.20;98.30;;;;;;5079762;23;20522;-83
2021/08/19 18:13:49;;;;;;;5.33;4.07;;;18.20;98.30;;;;;;5070939;23;20432;-82
2021/08/19 18:15:53;;;;;;;5.90;4.60;;;18.20;98.30;;;;;;5079599;23;20428;-83
2021/08/19 18:17:56;;;;;;;6.63;4.07;;;18.10;98.30;;;;;;5071103;23;20968;-83
2021/08/19 18:19:59;;;;;;;5.90;4.70;;;18.10;98.30;;;;;;5071284;23;20466;-83
2021/08/19 18:22:03;;;;;;;5.13;3.97;;;18.10;98.30;;;;;;5079568;23;21180;-83
2021/08/19 18:24:07;;;;;;;7.47;5.70;;;18.10;98.30;;;;;;5070939;23;20828;-83
2021/08/19 18:26:15;;;;;;;6.70;5.60;;;18.10;98.30;;;;;;5079779;23;20447;-83
2021/08/19 18:28:18;;;;;;;9.63;4.60;;;18.00;98.30;;;;;;5071603;23;20416;-82
2021/08/19 18:30:21;;;;;;;5.30;3.77;;;18.00;98.30;;;;;;5078998;23;20451;-83
2021/08/19 18:32:25;;;;;;;5.70;3.80;;;18.00;98.30;;;;;;5078844;23;20523;-83
2021/08/19 18:34:28;;;;;;;5.53;4.10;;;18.00;98.30;;;;;;5071250;23;20436;-83
2021/08/19 18:36:31;;;;;;;8.43;4.03;;;18.00;98.30;;;;;;5079016;23;20450;-83
2021/08/19 18:38:35;;;;;;;5.90;4.10;;;18.10;98.30;;;;;;5071351;23;20428;-83
2021/08/19 18:40:39;;;;;;;7.80;4.33;;;18.10;98.30;;;;;;5079483;23;20506;-83
2021/08/19 18:42:42;;;;;;;6.07;3.70;;;18.10;98.30;;;;;;5079036;23;20506;-83
2021/08/19 18:44:45;;;;;;;6.67;4.10;;;18.00;98.30;;;;;;5078824;23;20447;-83
2021/08/19 18:46:48;;;;;;;5.50;3.90;;;17.90;98.30;;;;;;5080155;23;20780;-83
2021/08/19 18:48:52;;;;;;;5.13;3.50;;;17.90;98.30;;;;;;5070934;23;20439;-82
2021/08/19 18:50:55;;;;;;;5.27;3.50;;;17.80;98.30;;;;;;5069991;23;20472;-83
2021/08/19 18:52:58;;;;;;;5.53;3.50;;;17.80;98.30;;;;;;5077850;23;20880;-83
2021/08/19 18:55:02;;;;;;;5.93;3.60;;;17.80;98.30;;;;;;5077525;23;20442;-83
2021/08/19 18:57:07;;;;;;;7.97;4.70;;;17.80;98.30;;;;;;5078314;23;20424;-82
2021/08/19 18:59:12;;;;;;;7.90;4.53;;;17.70;98.30;;;;;;5078494;23;20914;-82
2021/08/19 19:01:15;;;;;;;6.87;4.07;;;17.70;98.30;;;;;;5070877;23;20448;-83
2021/08/19 19:03:18;;;;;;;6.77;4.03;;;17.70;98.30;;;;;;5077566;23;20458;-82
2021/08/19 19:05:22;;;;;;;6.20;4.13;;;17.70;98.30;;;;;;5077692;23;20428;-82
2021/08/19 19:07:25;;;;;;;6.00;4.30;;;17.70;98.30;;;;;;5078442;23;20434;-82
2021/08/19 19:09:33;;;;;;;4.77;3.80;;;17.70;98.30;;;;;;5079890;23;20448;-82
2021/08/19 19:11:36;;;;;;;5.20;4.00;;;17.70;98.30;;;;;;5078969;23;20434;-82
2021/08/19 19:13:40;;;;;;;5.47;4.17;;;17.60;98.30;;;;;;5070186;23;20534;-82
2021/08/19 19:15:43;;;;;;;7.23;3.60;;;17.60;98.30;;;;;;5077788;23;20881;-82
2021/08/19 19:17:46;;;;;;;6.77;3.67;;;17.60;98.30;;;;;;5070052;23;20442;-82
2021/08/19 19:19:50;;;;;;;6.83;3.90;;;17.60;98.30;;;;;;5072165;23;20428;-82
2021/08/19 19:21:53;;;;;;;5.33;3.90;;;17.50;98.30;;;;;;5071745;23;20765;-82
2021/08/19 19:23:56;;;;;;;6.70;3.53;;;17.50;98.30;;;;;;5071751;23;20988;-82
2021/08/19 19:25:59;;;;;;;6.73;3.77;;;17.50;98.30;;;;;;5079511;23;20965;-83
2021/08/19 19:28:06;;;;;;;5.80;4.30;;;17.50;98.30;;;;;;5071595;23;20435;-82
2021/08/19 19:30:12;;;;;;;6.63;3.60;;;17.40;98.30;;;;;;5080460;23;20436;-83
2021/08/19 19:32:16;;;;;;;6.17;3.90;;;17.40;98.30;;;;;;5072884;23;20448;-82
2021/08/19 19:34:18;;;;;;;5.43;3.63;;;17.40;98.30;;;;;;5070055;23;20463;-82
2021/08/19 19:36:21;;;;;;;8.53;4.10;;;17.40;98.30;;;;;;5069702;23;21199;-83
2021/08/19 19:38:24;;;;;;;8.80;3.90;;;17.40;98.30;;;;;;5070578;23;20506;-82
2021/08/19 19:40:28;;;;;;;7.67;4.20;;;17.30;98.30;;;;;;5071206;23;20455;-82
2021/08/19 19:42:33;;;;;;;7.33;3.63;;;17.30;98.30;;;;;;5079372;23;20450;-82
2021/08/19 19:44:36;;;;;;;4.90;3.40;;;17.30;98.30;;;;;;5070161;23;20518;-81
2021/08/19 19:46:40;;;;;;;5.70;3.83;;;17.20;98.30;;;;;;5070853;23;20762;-82
2021/08/19 19:48:43;;;;;;;7.13;4.37;;;17.20;98.30;;;;;;5071491;23;20522;-82
2021/08/19 19:50:46;;;;;;;8.83;4.23;;;17.20;98.30;;;;;;5078129;23;20476;-82
2021/08/19 19:52:52;;;;;;;6.57;3.97;;;17.10;98.30;;;;;;5070658;23;20475;-82
2021/08/19 19:54:57;;;;;;;8.23;3.60;;;17.10;98.30;;;;;;5070212;23;20430;-82
2021/08/19 19:57:00;;;;;;;5.90;3.43;;;17.10;98.30;;;;;;5078501;23;20522;-82
2021/08/19 19:59:03;;;;;;;7.63;3.70;;;17.10;98.30;;;;;;5070429;23;20442;-82
2021/08/19 20:01:06;;;;;;;5.37;3.70;;;17.10;98.30;;;;;;5070233;23;20522;-82
2021/08/19 20:03:11;;;;;;;7.13;3.80;;;17.10;98.30;;;;;;5077436;23;20901;-82
2021/08/19 20:05:14;;;;;;;8.67;3.77;;;17.10;98.30;;;;;;5070283;23;20511;-82
2021/08/19 20:07:21;;;;;;;6.30;3.80;;;17.10;98.30;;;;;;5069234;23;20416;-82
2021/08/19 20:09:24;;;;;;;5.47;3.60;;;17.10;98.30;;;;;;5076507;23;20416;-82
2021/08/19 20:11:27;;;;;;;5.87;3.60;;;17.10;98.30;;;;;;5068122;23;20474;-82
2021/08/19 20:13:30;;;;;;;5.67;4.23;;;17.10;98.30;;;;;;5069260;23;20470;-81
2021/08/19 20:15:33;;;;;;;7.30;3.43;;;17.10;98.30;;;;;;5068456;23;20821;-81
2021/08/19 20:17:36;;;;;;;5.00;3.80;;;17.10;98.30;;;;;;5077373;23;20426;-82
2021/08/19 20:19:41;;;;;;;5.13;3.70;;;17.10;98.30;;;;;;5078034;23;20436;-82
2021/08/19 20:21:45;;;;;;;5.10;3.80;;;17.10;98.30;;;;;;5070322;23;20734;-82
2021/08/19 20:23:48;;;;;;;6.70;4.07;;;17.10;98.30;;;;;;5078299;23;20805;-82
2021/08/19 20:25:54;;;;;;;7.00;3.87;;;17.10;98.30;;;;;;5076812;23;20778;-82
2021/08/19 20:27:58;;;;;;;5.63;4.03;;;17.10;98.30;;;;;;5069866;23;20902;-82
2021/08/19 20:30:01;;;;;;;5.70;3.70;;;17.10;98.30;;;;;;5068230;23;20431;-82
2021/08/19 20:32:04;;;;;;;6.07;4.20;;;17.10;98.30;;;;;;5069072;23;20439;-82
2021/08/19 20:34:07;;;;;;;6.00;3.70;;;17.10;98.30;;;;;;5066532;23;20802;-82
2021/08/19 20:36:12;;;;;;;8.83;3.77;;;17.10;98.30;;;;;;5076072;23;20510;-82
2021/08/19 20:38:14;;;;;;;5.50;3.80;;;17.20;98.30;;;;;;5067901;23;20769;-82
2021/08/19 20:40:17;;;;;;;9.53;4.77;;;17.10;98.30;;;;;;5067149;23;20909;-82
2021/08/19 20:42:20;;;;;;;6.23;4.20;;;17.10;98.30;;;;;;5067428;23;20456;-81
2021/08/19 20:44:23;;;;;;;7.47;4.00;;;17.10;98.30;;;;;;5075320;23;20909;-82
2021/08/19 20:46:26;;;;;;;8.80;4.53;;;17.10;98.30;;;;;;5068544;23;20431;-81
2021/08/19 20:48:29;;;;;;;7.07;4.53;;;17.10;98.30;;;;;;5067971;23;20519;-82
2021/08/19 20:50:32;;;;;;;4.73;3.77;;;17.10;98.30;;;;;;5075924;23;20646;-81
2021/08/19 20:52:37;;;;;;;10.33;4.33;;;17.10;98.30;;;;;;5067444;23;20767;-86
2021/08/19 20:54:40;;;;;;;8.50;4.20;;;17.10;98.30;;;;;;5065476;23;20440;-84
2021/08/19 20:56:42;;;;;;;7.47;4.40;;;17.20;98.30;;;;;;5074862;23;20432;-84
2021/08/19 20:58:45;;;;;;;6.57;4.33;;;17.10;98.30;;;;;;5066563;23;20523;-85
2021/08/19 21:00:48;;;;;;;8.57;4.50;;;17.10;98.30;;;;;;5066984;23;20427;-84
2021/08/19 21:02:52;;;;;;;5.50;3.70;;;17.10;98.30;;;;;;5075177;23;20527;-84
2021/08/19 21:04:56;;;;;;;5.43;4.00;;;17.10;98.30;;;;;;5066761;23;20486;-85
2021/08/19 21:06:59;;;;;;;9.87;4.83;;;17.10;98.30;;;;;;5075176;23;20518;-84
2021/08/19 21:09:03;;;;;;;8.70;3.77;;;17.10;98.30;;;;;;5076099;23;20442;-84
2021/08/19 21:11:07;;;;;;;7.00;4.67;;;17.00;98.30;;;;;;5074924;23;20443;-83
2021/08/19 21:13:11;;;;;;;7.00;3.40;;;17.00;98.30;;;;;;5073714;23;20448;-82
2021/08/19 21:15:14;;;;;;;6.43;3.80;;;17.00;98.30;;;;;;5066782;23;20470;-82
2021/08/19 21:17:17;;;;;;;6.80;3.93;;;17.00;98.30;;;;;;5074938;23;20917;-83
2021/08/19 21:19:20;;;;;;;5.77;3.80;;;17.00;98.30;;;;;;5074709;23;20432;-81
2021/08/19 21:21:23;;;;;;;5.00;3.73;;;17.00;98.30;;;;;;5075363;23;20526;-82
2021/08/19 21:23:26;;;;;;;5.87;4.07;;;17.00;98.30;;;;;;5076403;23;20439;-81
2021/08/19 21:25:30;;;;;;;7.33;3.57;;;17.00;98.30;;;;;;5076654;23;20452;-82
2021/08/19 21:27:33;;;;;;;5.43;3.70;;;17.00;98.30;;;;;;5068417;23;20510;-82
2021/08/19 21:29:36;;;;;;;6.73;4.20;;;17.00;98.30;;;;;;5068182;23;20435;-83
2021/08/19 21:31:39;;;;;;;5.60;4.40;;;17.00;98.30;;;;;;5076193;23;20443;-82
2021/08/19 21:33:42;;;;;;;8.47;5.10;;;16.90;98.30;;;;;;5075017;23;20785;-83
2021/08/19 21:35:45;;;;;;;8.93;4.40;;;16.90;98.30;;;;;;5076655;23;20434;-82
2021/08/19 21:37:48;;;;;;;7.30;4.60;;;16.90;98.30;;;;;;5068616;23;20518;-82
2021/08/19 21:39:51;;;;;;;6.20;4.10;;;17.00;98.30;;;;;;5075866;23;20851;-82
2021/08/19 21:41:56;;;;;;;5.70;4.03;;;17.00;98.30;;;;;;5068494;23;20452;-82
2021/08/19 21:44:00;;;;;;;5.60;4.50;;;16.90;98.30;;;;;;5068148;23;20440;-82
2021/08/19 21:46:03;;;;;;;7.30;4.40;;;16.90;98.30;;;;;;5076297;23;20573;-83
2021/08/19 21:48:07;;;;;;;6.87;4.20;;;16.80;98.30;;;;;;5068403;23;20438;-83
2021/08/19 21:50:10;;;;;;;6.87;4.10;;;16.80;98.30;;;;;;5076640;23;20481;-83
2021/08/19 21:52:13;;;;;;;6.17;4.57;;;16.80;98.30;;;;;;5076629;23;20456;-83
2021/08/19 21:54:16;;;;;;;8.20;3.57;;;16.70;98.30;;;;;;5078658;23;20416;-82
2021/08/19 21:56:19;;;;;;;6.43;3.70;;;16.70;98.30;;;;;;5078371;23;20458;-83
2021/08/19 21:58:24;;;;;;;6.50;3.80;;;16.70;98.30;;;;;;5078158;23;20511;-83
2021/08/19 22:00:27;;;;;;;6.43;5.33;;;16.70;98.30;;;;;;5078304;23;20455;-82
2021/08/19 22:02:31;;;;;;;8.23;4.50;;;16.70;98.30;;;;;;5078571;23;20471;-83
2021/08/19 22:04:34;;;;;;;7.93;5.23;;;16.70;98.30;;;;;;5069890;23;20455;-83
2021/08/19 22:06:37;;;;;;;6.60;4.33;;;16.70;98.30;;;;;;5079323;23;20428;-82
2021/08/19 22:08:40;;;;;;;6.73;3.90;;;16.70;98.30;;;;;;5078688;23;20518;-83
2021/08/19 22:10:43;;;;;;;7.10;4.30;;;16.70;98.30;;;;;;5078265;23;20438;-82
2021/08/19 22:12:46;;;;;;;5.70;4.10;;;16.70;98.30;;;;;;5078431;23;20964;-82
2021/08/19 22:14:51;;;;;;;5.97;3.80;;;16.70;98.30;;;;;;5078522;23;20526;-82
2021/08/19 22:16:54;;;;;;;8.70;4.50;;;16.60;98.30;;;;;;5071745;23;20435;-82
2021/08/19 22:18:58;;;;;;;8.07;4.27;;;16.60;98.30;;;;;;5079466;23;20448;-83
2021/08/19 22:21:01;;;;;;;5.97;4.00;;;16.60;98.30;;;;;;5078345;23;20511;-84
2021/08/19 22:23:05;;;;;;;8.00;4.30;;;16.50;98.30;;;;;;5078571;23;20447;-83
2021/08/19 22:25:09;;;;;;;6.10;3.83;;;16.50;98.30;;;;;;5076773;23;20428;-83
2021/08/19 22:27:12;;;;;;;6.03;3.97;;;16.60;98.30;;;;;;5077763;23;20428;-84
2021/08/19 22:29:15;;;;;;;4.67;4.17;;;16.50;98.30;;;;;;5077323;23;20428;-83
2021/08/19 22:31:20;;;;;;;7.83;3.97;;;16.60;98.30;;;;;;5076249;23;20451;-83
2021/08/19 22:33:23;;;;;;;6.93;4.40;;;16.60;98.30;;;;;;5076334;23;20823;-83
2021/08/19 22:35:26;;;;;;;5.60;4.17;;;16.50;98.30;;;;;;5076641;23;20448;-83
2021/08/19 22:37:29;;;;;;;6.30;3.90;;;16.50;98.30;;;;;;5076915;23;20459;-82
2021/08/19 22:39:32;;;;;;;7.03;3.63;;;16.50;98.30;;;;;;5076567;23;20432;-83
2021/08/19 22:41:35;;;;;;;6.40;4.27;;;16.50;98.30;;;;;;5076393;23;20423;-83
2021/08/19 22:43:39;;;;;;;7.10;4.00;;;16.50;98.30;;;;;;5075921;23;21017;-82
2021/08/19 22:45:41;;;;;;;8.53;4.90;;;16.50;98.30;;;;;;5076832;23;20424;-83
2021/08/19 22:47:46;;;;;;;6.00;4.07;;;16.50;98.30;;;;;;5076014;23;20428;-83
2021/08/19 22:49:49;;;;;;;5.93;4.47;;;16.50;98.30;;;;;;5076810;23;20428;-83
2021/08/19 22:51:52;;;;;;;8.93;4.17;;;16.50;98.30;;;;;;5077167;23;20447;-82
2021/08/19 22:53:56;;;;;;;8.57;4.50;;;16.50;98.30;;;;;;5076980;23;20428;-82
2021/08/19 22:55:59;;;;;;;12.60;4.60;;;16.50;98.30;;;;;;5078276;23;20451;-83
2021/08/19 22:58:02;;;;;;;6.40;4.30;;;16.40;98.30;;;;;;5076512;23;20522;-83
2021/08/19 23:00:08;;;;;;;6.50;4.47;;;16.40;98.30;;;;;;5076911;23;20435;-83
2021/08/19 23:02:12;;;;;;;8.50;4.27;;;16.40;98.30;;;;;;5077790;23;20436;-82
2021/08/19 23:04:16;;;;;;;9.47;4.50;;;16.40;98.30;;;;;;5069689;23;20456;-83
2021/08/19 23:06:19;;;;;;;5.83;4.00;;;16.40;98.30;;;;;;5078117;23;20460;-83
2021/08/19 23:08:22;;;;;;;6.13;4.23;;;16.40;98.30;;;;;;5077543;23;20428;-82
2021/08/19 23:10:26;;;;;;;7.03;4.17;;;16.40;98.30;;;;;;5077602;23;20438;-82
2021/08/19 23:12:29;;;;;;;10.93;4.50;;;16.40;98.30;;;;;;5068967;23;21206;-82
2021/08/19 23:14:32;;;;;;;7.63;4.20;;;16.40;98.30;;;;;;5077175;23;20484;-82
2021/08/19 23:16:35;;;;;;;10.07;4.23;;;16.40;98.30;;;;;;5077526;23;20431;-83
2021/08/19 23:18:38;;;;;;;7.50;4.17;;;16.40;98.30;;;;;;5076997;23;20428;-82
2021/08/19 23:20:42;;;;;;;5.20;4.07;;;16.40;98.30;;;;;;5077844;23;20515;-82
2021/08/19 23:22:45;;;;;;;10.57;4.20;;;16.40;98.30;;;;;;5077097;23;20612;-82
2021/08/19 23:24:48;;;;;;;8.23;4.40;;;16.40;98.30;;;;;;5069266;23;20443;-81
2021/08/19 23:26:51;;;;;;;7.47;4.23;;;16.40;98.30;;;;;;5078016;23;20428;-81
2021/08/19 23:28:54;;;;;;;4.30;3.80;;;16.40;98.30;;;;;;5070069;23;20519;-82
2021/08/19 23:30:57;;;;;;;6.50;4.40;;;16.40;98.30;;;;;;5077184;23;20913;-82
2021/08/19 23:33:00;;;;;;;6.17;4.90;;;16.40;98.30;;;;;;5076705;23;20456;-82
2021/08/19 23:35:04;;;;;;;7.47;4.80;;;16.40;98.30;;;;;;5068926;23;20438;-82
2021/08/19 23:37:08;;;;;;;7.33;4.30;;;16.40;98.30;;;;;;5077365;23;20754;-82
2021/08/19 23:39:11;;;;;;;7.13;4.23;;;16.40;98.30;;;;;;5077231;23;20428;-82
2021/08/19 23:41:14;;;;;;;9.60;4.10;;;16.50;98.30;;;;;;5077133;23;20508;-83
2021/08/19 23:43:17;;;;;;;12.60;5.13;;;16.50;98.30;;;;;;5076741;23;20519;-82
2021/08/19 23:45:20;;;;;;;7.40;4.00;;;16.40;98.30;;;;;;5075922;23;20427;-83
2021/08/19 23:47:23;;;;;;;6.90;4.10;;;16.40;98.30;;;;;;5077509;23;20924;-82
2021/08/19 23:49:26;;;;;;;7.87;4.10;;;16.40;98.30;;;;;;5069490;23;20483;-82
2021/08/19 23:51:29;;;;;;;19.23;6.60;;;16.40;98.30;;;;;;5077700;23;20542;-83
2021/08/19 23:53:34;;;;;;;6.93;4.50;;;16.40;98.30;;;;;;5076228;23;20458;-82
2021/08/19 23:55:37;;;;;;;8.63;4.23;;;16.40;98.30;;;;;;5076522;23;20769;-82
2021/08/19 23:57:40;;;;;;;7.97;4.77;;;16.40;98.30;;;;;;5077382;23;20431;-83
2021/08/19 23:59:43;;;;;;;7.60;4.30;;;16.40;98.30;;;;;;5077681;23;20427;-82
